This is the latest recevied weather packets stored in our database for station/object KB2SKP. If no packets are shown the sender has not sent any weather packets the latest 1 day(s).
| Time | Temp. | Humidity | Pressure | Rain* | Wind** | Luminosity | Snow |
|---|---|---|---|---|---|---|---|
| 1778037597 | 21.67° C | 57% | 1008.6 hPa | 0 mm | 1.34 m/s, 94° | 0 W/m² | - |
| 1778037295 | 21.67° C | 57% | 1008.5 hPa | 0 mm | 0.89 m/s, 36° | 0 W/m² | - |
| 1778036992 | 21.67° C | 57% | 1008.6 hPa | 0 mm | 0.89 m/s, 106° | 0 W/m² | - |
| 1778036690 | 21.67° C | 57% | 1008.6 hPa | 0 mm | 0.89 m/s, 88° | 0 W/m² | - |
| 1778036387 | 21.67° C | 56% | 1008.8 hPa | 0 mm | 0 m/s | 0 W/m² | - |
| 1778036084 | 21.67° C | 55% | 1008.6 hPa | 0 mm | 0.45 m/s, 161° | 0 W/m² | - |
| 1778035780 | 22.22° C | 55% | 1008.9 hPa | 0 mm | 0.89 m/s, 57° | 0 W/m² | - |
| 1778035477 | 22.22° C | 55% | 1008.8 hPa | 0 mm | 1.34 m/s, 111° | 0 W/m² | - |
| 1778035173 | 22.22° C | 54% | 1008.8 hPa | 0 mm | 0 m/s | 0 W/m² | - |
| 1778034870 | 22.22° C | 54% | 1008.9 hPa | 0 mm | 0.89 m/s, 143° | 0 W/m² | - |
| 1778034566 | 22.22° C | 54% | 1008.7 hPa | 0 mm | 0.89 m/s, 207° | 0 W/m² | - |
| 1778034264 | 22.22° C | 53% | 1008.7 hPa | 0 mm | 0 m/s | 0 W/m² | - |
| 1778033962 | 22.22° C | 53% | 1009.2 hPa | 0 mm | 0 m/s | 0 W/m² | - |
| 1778033659 | 22.78° C | 52% | 1008.9 hPa | 0 mm | 0 m/s | 0 W/m² | - |
| 1778033356 | 22.78° C | 51% | 1008.8 hPa | 0 mm | 0 m/s | 0 W/m² | - |
| 1778033054 | 22.78° C | 51% | 1008.4 hPa | 0 mm | 0 m/s | 0 W/m² | - |
| 1778032751 | 22.78° C | 51% | 1008.7 hPa | 0 mm | 0 m/s | 0 W/m² | - |
| 1778032448 | 22.78° C | 50% | 1008.8 hPa | 0 mm | 1.34 m/s, 209° | 0 W/m² | - |
| 1778032145 | 22.78° C | 50% | 1008.6 hPa | 0 mm | 1.34 m/s, 265° | 0 W/m² | - |
| 1778031842 | 22.78° C | 50% | 1008.7 hPa | 0 mm | 0.45 m/s, 102° | 0 W/m² | - |
| 1778031539 | 22.78° C | 49% | 1008.5 hPa | 0 mm | 1.34 m/s, 133° | 0 W/m² | - |
| 1778031237 | 22.78° C | 49% | 1008.5 hPa | 0 mm | 0 m/s | 0 W/m² | - |
| 1778030932 | 22.78° C | 49% | 1008.5 hPa | 0 mm | 0.45 m/s, 72° | 0 W/m² | - |
| 1778030629 | 23.33° C | 48% | 1008.5 hPa | 0 mm | 0.45 m/s, 95° | 0 W/m² | - |
| 1778030326 | 23.33° C | 49% | 1008.2 hPa | 0 mm | 0.89 m/s, 256° | 0 W/m² | - |
* Rain latest hour (hover to see other rain measurements)
** Current wind speed in m/s (hover to see current wind gust speed)